createdAt,value
2018-08-22T00:00:15.806Z,1006.40
2018-08-22T00:01:15.484Z,1006.39
2018-08-22T00:02:15.472Z,1006.37
2018-08-22T00:03:15.518Z,1006.34
2018-08-22T00:04:16.250Z,1006.36
2018-08-22T00:05:15.778Z,1006.37
2018-08-22T00:06:15.597Z,1006.36
2018-08-22T00:07:15.534Z,1006.36
2018-08-22T00:08:15.399Z,1006.31
2018-08-22T00:09:15.512Z,1006.30
2018-08-22T00:10:15.344Z,1006.31
2018-08-22T00:11:15.603Z,1006.30
2018-08-22T00:12:15.625Z,1006.28
2018-08-22T00:13:15.312Z,1006.30
2018-08-22T00:14:15.443Z,1006.34
2018-08-22T00:15:15.500Z,1006.30
2018-08-22T00:16:15.360Z,1006.30
2018-08-22T00:17:15.506Z,1006.28
2018-08-22T00:18:15.327Z,1006.32
2018-08-22T00:19:15.558Z,1006.26
2018-08-22T00:20:15.257Z,1006.28
2018-08-22T00:21:15.223Z,1006.26
2018-08-22T00:22:15.711Z,1006.29
2018-08-22T00:23:15.281Z,1006.34
2018-08-22T00:24:15.905Z,1006.29
2018-08-22T00:25:15.610Z,1006.28
2018-08-22T00:26:15.335Z,1006.28
2018-08-22T00:27:15.297Z,1006.35
2018-08-22T00:28:15.298Z,1006.28
2018-08-22T00:29:15.378Z,1006.26
2018-08-22T00:30:15.617Z,1006.27
2018-08-22T00:31:15.097Z,1006.25
2018-08-22T00:32:15.533Z,1006.25
2018-08-22T00:33:15.071Z,1006.25
2018-08-22T00:34:15.059Z,1006.24
2018-08-22T00:35:15.061Z,1006.21
2018-08-22T00:36:15.103Z,1006.21
2018-08-22T00:37:15.556Z,1006.24
2018-08-22T00:38:15.680Z,1006.21
2018-08-22T00:39:15.079Z,1006.25
2018-08-22T00:40:15.039Z,1006.16
2018-08-22T00:41:15.023Z,1006.21
2018-08-22T00:42:14.987Z,1006.17
2018-08-22T00:43:14.954Z,1006.18
2018-08-22T00:44:15.320Z,1006.19
2018-08-22T00:45:15.539Z,1006.16
2018-08-22T00:46:15.439Z,1006.17
2018-08-22T00:47:14.928Z,1006.18
2018-08-22T00:48:14.900Z,1006.17
2018-08-22T00:49:14.879Z,1006.18
2018-08-22T00:50:14.870Z,1006.20
2018-08-22T00:51:14.861Z,1006.16
2018-08-22T00:52:14.868Z,1006.16
2018-08-22T00:53:14.836Z,1006.16
2018-08-22T00:54:14.828Z,1006.17
2018-08-22T00:55:14.812Z,1006.17
2018-08-22T00:56:14.803Z,1006.14
2018-08-22T00:57:14.818Z,1006.15
2018-08-22T00:58:14.785Z,1006.14
2018-08-22T00:59:14.770Z,1006.11
2018-08-22T01:00:14.762Z,1006.13
2018-08-22T01:01:14.751Z,1006.15
2018-08-22T01:02:14.780Z,1006.15
2018-08-22T01:03:14.719Z,1006.12
2018-08-22T01:04:14.706Z,1006.09
2018-08-22T01:05:14.705Z,1006.10
2018-08-22T01:06:14.685Z,1006.10
2018-08-22T01:07:14.706Z,1006.05
2018-08-22T01:08:14.670Z,1006.10
2018-08-22T01:09:14.654Z,1006.05
2018-08-22T01:10:14.639Z,1006.08
2018-08-22T01:11:14.630Z,1006.07
2018-08-22T01:12:14.642Z,1006.02
2018-08-22T01:13:14.604Z,1006.05
2018-08-22T01:14:14.590Z,1006.04
2018-08-22T01:15:14.581Z,1006.02
2018-08-22T01:16:14.565Z,1006.04
2018-08-22T01:17:14.586Z,1006.00
2018-08-22T01:18:14.548Z,1006.01
2018-08-22T01:19:14.535Z,1006.01
2018-08-22T01:20:14.527Z,1006.03
2018-08-22T01:21:14.507Z,1006.03
2018-08-22T01:22:14.523Z,1006.00
2018-08-22T01:23:14.494Z,1006.03
2018-08-22T01:24:14.481Z,1005.97
2018-08-22T01:25:14.470Z,1006.01
2018-08-22T01:26:14.453Z,1005.95
2018-08-22T01:27:14.467Z,1006.00
2018-08-22T01:28:14.431Z,1005.99
2018-08-22T01:29:14.417Z,1005.98
2018-08-22T01:30:14.441Z,1005.97
2018-08-22T01:31:14.388Z,1006.00
2018-08-22T01:32:14.378Z,1005.96
2018-08-22T01:33:14.370Z,1005.95
2018-08-22T01:34:14.362Z,1005.94
2018-08-22T01:35:14.340Z,1005.95
2018-08-22T01:36:14.359Z,1005.97
2018-08-22T01:37:14.318Z,1005.92
2018-08-22T01:38:14.304Z,1005.94
2018-08-22T01:39:14.301Z,1005.91
2018-08-22T01:40:14.284Z,1005.89
2018-08-22T01:41:14.299Z,1005.90
2018-08-22T01:42:14.266Z,1005.90
2018-08-22T01:43:14.253Z,1005.92
2018-08-22T01:44:14.234Z,1005.88
2018-08-22T01:45:14.228Z,1005.95
2018-08-22T01:46:14.250Z,1005.90
2018-08-22T01:47:14.202Z,1005.89
2018-08-22T01:48:14.193Z,1005.90
2018-08-22T01:49:14.177Z,1005.93
2018-08-22T01:50:14.168Z,1005.93
2018-08-22T01:51:14.155Z,1005.89
2018-08-22T01:52:14.168Z,1005.95
2018-08-22T01:53:14.136Z,1005.95
2018-08-22T01:54:14.120Z,1005.93
2018-08-22T01:55:14.113Z,1005.90
2018-08-22T01:56:14.100Z,1005.89
2018-08-22T01:57:14.115Z,1005.94
2018-08-22T01:58:14.076Z,1005.88
2018-08-22T01:59:14.067Z,1005.92
2018-08-22T02:00:14.050Z,1005.89
2018-08-22T02:01:14.041Z,1005.88
2018-08-22T02:02:14.050Z,1005.89
2018-08-22T02:03:14.019Z,1005.90
2018-08-22T02:04:14.003Z,1005.86
2018-08-22T02:05:13.995Z,1005.90
2018-08-22T02:06:13.980Z,1005.91
2018-08-22T02:07:14.004Z,1005.88
2018-08-22T02:08:13.962Z,1005.83
2018-08-22T02:09:13.946Z,1005.90
2018-08-22T02:10:13.936Z,1005.89
2018-08-22T02:11:13.926Z,1005.86
2018-08-22T02:12:13.911Z,1005.87
2018-08-22T02:13:13.918Z,1005.87
2018-08-22T02:14:13.893Z,1005.81
2018-08-22T02:15:13.880Z,1005.83
2018-08-22T02:16:13.870Z,1005.79
2018-08-22T02:17:13.880Z,1005.79
2018-08-22T02:18:13.841Z,1005.84
2018-08-22T02:19:13.837Z,1005.84
2018-08-22T02:20:13.817Z,1005.80
2018-08-22T02:21:13.812Z,1005.83
2018-08-22T02:22:13.817Z,1005.80
2018-08-22T02:23:13.790Z,1005.77
2018-08-22T02:24:13.781Z,1005.82
2018-08-22T02:25:13.844Z,1005.82
2018-08-22T02:26:13.756Z,1005.81
2018-08-22T02:27:13.737Z,1005.83
2018-08-22T02:28:13.762Z,1005.82
2018-08-22T02:29:13.716Z,1005.75
2018-08-22T02:30:13.707Z,1005.76
2018-08-22T02:31:13.693Z,1005.77
2018-08-22T02:32:13.680Z,1005.79
2018-08-22T02:33:13.672Z,1005.83
2018-08-22T02:34:13.683Z,1005.83
2018-08-22T02:35:13.652Z,1005.80
2018-08-22T02:36:13.636Z,1005.81
2018-08-22T02:37:13.626Z,1005.78
2018-08-22T02:38:13.613Z,1005.80
2018-08-22T02:39:13.634Z,1005.78
2018-08-22T02:40:13.590Z,1005.80
2018-08-22T02:41:13.576Z,1005.77
2018-08-22T02:42:13.569Z,1005.78
2018-08-22T02:43:13.552Z,1005.75
2018-08-22T02:44:13.541Z,1005.77
2018-08-22T02:45:13.564Z,1005.75
2018-08-22T02:46:13.521Z,1005.71
2018-08-22T02:47:13.510Z,1005.71
2018-08-22T02:48:13.500Z,1005.75
2018-08-22T02:49:13.483Z,1005.69
2018-08-22T02:50:13.475Z,1005.74
2018-08-22T02:51:13.496Z,1005.68
2018-08-22T02:52:13.452Z,1005.69
2018-08-22T02:53:13.437Z,1005.69
2018-08-22T02:54:13.422Z,1005.69
2018-08-22T02:55:13.420Z,1005.71
2018-08-22T02:56:13.404Z,1005.73
2018-08-22T02:57:13.417Z,1005.71
2018-08-22T02:58:13.388Z,1005.70
2018-08-22T02:59:13.365Z,1005.73
2018-08-22T03:00:13.359Z,1005.69
2018-08-22T03:01:13.350Z,1005.67
2018-08-22T03:02:13.363Z,1005.69
2018-08-22T03:03:13.328Z,1005.67
2018-08-22T03:04:13.311Z,1005.66
2018-08-22T03:05:13.300Z,1005.65
2018-08-22T03:06:13.290Z,1005.66
2018-08-22T03:07:13.302Z,1005.69
2018-08-22T03:08:13.269Z,1005.67
2018-08-22T03:09:13.249Z,1005.65
2018-08-22T03:10:13.270Z,1005.71
2018-08-22T03:11:13.226Z,1005.68
2018-08-22T03:12:13.248Z,1005.66
2018-08-22T03:13:13.212Z,1005.67
2018-08-22T03:14:13.191Z,1005.68
2018-08-22T03:15:13.192Z,1005.69
2018-08-22T03:16:13.182Z,1005.68
2018-08-22T03:17:13.156Z,1005.66
2018-08-22T03:18:13.177Z,1005.64
2018-08-22T03:19:13.140Z,1005.67
2018-08-22T03:20:13.128Z,1005.67
2018-08-22T03:21:13.114Z,1005.66
2018-08-22T03:22:13.099Z,1005.62
2018-08-22T03:23:13.128Z,1005.58
2018-08-22T03:24:13.078Z,1005.58
2018-08-22T03:25:13.073Z,1005.64
2018-08-22T03:26:13.081Z,1005.61
2018-08-22T03:27:13.045Z,1005.66
2018-08-22T03:28:13.038Z,1005.65
2018-08-22T03:29:13.051Z,1005.60
2018-08-22T03:30:13.010Z,1005.64
2018-08-22T03:31:12.999Z,1005.62
2018-08-22T03:32:12.989Z,1005.62
2018-08-22T03:33:12.974Z,1005.59
2018-08-22T03:34:12.967Z,1005.60
2018-08-22T03:35:12.986Z,1005.60
2018-08-22T03:36:12.938Z,1005.58
2018-08-22T03:37:12.931Z,1005.58
2018-08-22T03:38:12.914Z,1005.56
2018-08-22T03:39:12.909Z,1005.56
2018-08-22T03:40:12.897Z,1005.58
2018-08-22T03:41:12.901Z,1005.51
2018-08-22T03:42:12.874Z,1005.50
2018-08-22T03:43:12.852Z,1005.49
2018-08-22T03:44:12.841Z,1005.48
2018-08-22T03:45:12.839Z,1005.52
2018-08-22T03:46:12.842Z,1005.54
2018-08-22T03:47:12.819Z,1005.46
2018-08-22T03:48:12.800Z,1005.46
2018-08-22T03:49:12.791Z,1005.50
2018-08-22T03:50:12.774Z,1005.49
2018-08-22T03:51:12.798Z,1005.50
2018-08-22T03:52:12.754Z,1005.49
2018-08-22T03:53:12.739Z,1005.48
2018-08-22T03:54:12.731Z,1005.50
2018-08-22T03:55:12.716Z,1005.51
2018-08-22T03:56:12.702Z,1005.49
2018-08-22T03:57:12.735Z,1005.52
2018-08-22T03:58:12.679Z,1005.48
2018-08-22T03:59:12.679Z,1005.50
2018-08-22T04:00:12.664Z,1005.46
2018-08-22T04:01:12.642Z,1005.47
2018-08-22T04:02:12.639Z,1005.49
2018-08-22T04:03:12.644Z,1005.46
2018-08-22T04:04:12.612Z,1005.50
2018-08-22T04:05:12.602Z,1005.52
2018-08-22T04:06:12.592Z,1005.52
2018-08-22T04:07:12.572Z,1005.49
2018-08-22T04:08:12.589Z,1005.56
2018-08-22T04:09:12.552Z,1005.52
2018-08-22T04:10:12.536Z,1005.56
2018-08-22T04:11:12.533Z,1005.51
2018-08-22T04:12:12.512Z,1005.54
2018-08-22T04:13:12.534Z,1005.55
2018-08-22T04:14:12.499Z,1005.52
2018-08-22T04:15:12.480Z,1005.52
2018-08-22T04:16:12.474Z,1005.51
2018-08-22T04:17:12.455Z,1005.55
2018-08-22T04:18:12.443Z,1005.49
2018-08-22T04:19:12.457Z,1005.54
2018-08-22T04:20:12.423Z,1005.54
2018-08-22T04:21:12.408Z,1005.55
2018-08-22T04:22:12.399Z,1005.48
2018-08-22T04:23:12.386Z,1005.52
2018-08-22T04:24:12.404Z,1005.45
2018-08-22T04:25:12.367Z,1005.49
2018-08-22T04:26:12.349Z,1005.52
2018-08-22T04:27:12.340Z,1005.50
2018-08-22T04:28:12.331Z,1005.53
2018-08-22T04:29:12.316Z,1005.51
2018-08-22T04:30:12.332Z,1005.54
2018-08-22T04:31:12.287Z,1005.55
2018-08-22T04:32:12.279Z,1005.53
2018-08-22T04:33:12.272Z,1005.59
2018-08-22T04:34:12.252Z,1005.57
2018-08-22T04:35:12.278Z,1005.58
2018-08-22T04:36:12.232Z,1005.55
2018-08-22T04:37:12.222Z,1005.53
2018-08-22T04:38:12.207Z,1005.55
2018-08-22T04:39:12.200Z,1005.54
2018-08-22T04:40:12.183Z,1005.52
2018-08-22T04:41:12.211Z,1005.57
2018-08-22T04:42:12.159Z,1005.55
2018-08-22T04:43:12.156Z,1005.53
2018-08-22T04:44:12.139Z,1005.53
2018-08-22T04:45:12.127Z,1005.51
2018-08-22T04:46:12.111Z,1005.56
2018-08-22T04:47:12.129Z,1005.56
2018-08-22T04:48:12.136Z,1005.52
2018-08-22T04:49:12.077Z,1005.55
2018-08-22T04:50:12.076Z,1005.58
2018-08-22T04:51:12.053Z,1005.53
2018-08-22T04:52:12.081Z,1005.54
2018-08-22T04:53:12.034Z,1005.54
2018-08-22T04:54:12.019Z,1005.52
2018-08-22T04:55:12.016Z,1005.53
2018-08-22T04:56:12.005Z,1005.54
2018-08-22T04:57:11.988Z,1005.55
2018-08-22T04:58:12.008Z,1005.56
2018-08-22T04:59:11.964Z,1005.55
2018-08-22T05:00:11.953Z,1005.52
2018-08-22T05:01:11.944Z,1005.55
2018-08-22T05:02:11.931Z,1005.51
2018-08-22T05:03:11.914Z,1005.53
2018-08-22T05:04:11.941Z,1005.57
2018-08-22T05:05:11.900Z,1005.50
2018-08-22T05:06:11.887Z,1005.53
2018-08-22T05:07:11.874Z,1005.53
2018-08-22T05:08:11.866Z,1005.55
2018-08-22T05:09:11.846Z,1005.53
2018-08-22T05:10:11.859Z,1005.49
2018-08-22T05:11:11.828Z,1005.46
2018-08-22T05:12:11.810Z,1005.53
2018-08-22T05:13:11.808Z,1005.46
2018-08-22T05:14:11.793Z,1005.54
2018-08-22T05:15:11.805Z,1005.49
2018-08-22T05:16:11.765Z,1005.50
2018-08-22T05:17:11.758Z,1005.48
2018-08-22T05:18:11.747Z,1005.50
2018-08-22T05:19:11.731Z,1005.55
2018-08-22T05:20:11.759Z,1005.50
2018-08-22T05:21:11.705Z,1005.51
2018-08-22T05:22:11.698Z,1005.49
2018-08-22T05:23:11.682Z,1005.51
2018-08-22T05:24:11.677Z,1005.53
2018-08-22T05:25:11.664Z,1005.54
2018-08-22T05:26:11.683Z,1005.55
2018-08-22T05:27:11.646Z,1005.51
2018-08-22T05:28:11.627Z,1005.50
2018-08-22T05:29:11.620Z,1005.49
2018-08-22T05:30:11.675Z,1005.53
2018-08-22T05:31:11.590Z,1005.49
2018-08-22T05:32:11.611Z,1005.50
2018-08-22T05:33:11.576Z,1005.52
2018-08-22T05:34:11.565Z,1005.52
2018-08-22T05:35:11.544Z,1005.54
2018-08-22T05:36:11.532Z,1005.49
2018-08-22T05:37:11.553Z,1005.50
2018-08-22T05:38:11.507Z,1005.54
2018-08-22T05:39:11.499Z,1005.58
2018-08-22T05:40:11.494Z,1005.59
2018-08-22T05:41:11.472Z,1005.59
2018-08-22T05:42:11.503Z,1005.56
2018-08-22T05:43:11.449Z,1005.54
2018-08-22T05:44:11.446Z,1005.55
2018-08-22T05:45:11.429Z,1005.57
2018-08-22T05:46:11.424Z,1005.58
2018-08-22T05:47:11.403Z,1005.56
2018-08-22T05:48:11.412Z,1005.53
2018-08-22T05:49:11.409Z,1005.54
2018-08-22T05:50:11.365Z,1005.56
2018-08-22T05:51:11.362Z,1005.50
2018-08-22T05:52:11.346Z,1005.56
2018-08-22T05:53:11.368Z,1005.56
2018-08-22T05:54:11.324Z,1005.56
2018-08-22T05:55:11.305Z,1005.52
2018-08-22T05:56:11.296Z,1005.47
2018-08-22T05:57:11.290Z,1005.50
2018-08-22T05:58:11.269Z,1005.54
2018-08-22T05:59:11.301Z,1005.51
2018-08-22T06:00:11.248Z,1005.53
2018-08-22T06:01:11.241Z,1005.56
2018-08-22T06:02:11.224Z,1005.49
2018-08-22T06:03:11.238Z,1005.53
2018-08-22T06:04:11.201Z,1005.52
2018-08-22T06:05:11.225Z,1005.54
2018-08-22T06:06:11.178Z,1005.57
2018-08-22T06:07:11.168Z,1005.53
2018-08-22T06:08:11.158Z,1005.56
2018-08-22T06:09:11.211Z,1005.52
2018-08-22T06:10:11.129Z,1005.61
2018-08-22T06:11:11.143Z,1005.69
2018-08-22T06:12:11.113Z,1005.62
2018-08-22T06:13:11.095Z,1005.61
2018-08-22T06:14:11.090Z,1005.68
2018-08-22T06:15:11.073Z,1005.60
2018-08-22T06:16:11.082Z,1005.66
2018-08-22T06:17:11.059Z,1005.62
2018-08-22T06:18:11.036Z,1005.62
2018-08-22T06:19:11.032Z,1005.63
2018-08-22T06:20:11.018Z,1005.58
2018-08-22T06:21:11.027Z,1005.65
2018-08-22T06:22:10.994Z,1005.58
2018-08-22T06:23:10.978Z,1005.66
2018-08-22T06:24:10.968Z,1005.65
2018-08-22T06:25:10.959Z,1005.67
2018-08-22T06:26:10.979Z,1005.67
2018-08-22T06:27:10.935Z,1005.67
2018-08-22T06:28:10.925Z,1005.65
2018-08-22T06:29:10.914Z,1005.67
2018-08-22T06:30:10.894Z,1005.68
2018-08-22T06:31:10.892Z,1005.68
2018-08-22T06:32:10.904Z,1005.64
2018-08-22T06:33:10.861Z,1005.62
2018-08-22T06:34:10.858Z,1005.64
2018-08-22T06:35:10.839Z,1005.68
2018-08-22T06:36:10.849Z,1005.62
2018-08-22T06:37:10.895Z,1005.65
2018-08-22T06:38:10.808Z,1005.62
2018-08-22T06:39:10.798Z,1005.62
2018-08-22T06:40:10.787Z,1005.63
2018-08-22T06:41:10.773Z,1005.66
2018-08-22T06:42:10.768Z,1005.63
2018-08-22T06:43:10.785Z,1005.67
2018-08-22T06:44:10.761Z,1005.62
2018-08-22T06:45:10.726Z,1005.66
2018-08-22T06:46:10.722Z,1005.61
2018-08-22T06:47:10.699Z,1005.62
2018-08-22T06:48:10.688Z,1005.65
2018-08-22T06:49:10.721Z,1005.59
2018-08-22T06:50:10.707Z,1005.58
2018-08-22T06:51:10.661Z,1005.64
2018-08-22T06:52:10.641Z,1005.66
2018-08-22T06:53:10.638Z,1005.68
2018-08-22T06:54:10.627Z,1005.69
2018-08-22T06:55:10.638Z,1005.73
2018-08-22T06:56:10.598Z,1005.70
2018-08-22T06:57:10.593Z,1005.77
2018-08-22T06:58:10.575Z,1005.69
2018-08-22T06:59:10.596Z,1005.70
2018-08-22T07:00:10.550Z,1005.75
2018-08-22T07:01:10.546Z,1005.72
2018-08-22T07:02:10.533Z,1005.76
2018-08-22T07:03:10.517Z,1005.70
2018-08-22T07:04:10.515Z,1005.75
2018-08-22T07:05:10.518Z,1005.77
2018-08-22T07:06:10.488Z,1005.66
2018-08-22T07:07:10.474Z,1005.66
2018-08-22T07:08:10.513Z,1005.68
2018-08-22T07:09:10.445Z,1005.71
2018-08-22T07:10:10.474Z,1005.69
2018-08-22T07:11:10.428Z,1005.68
2018-08-22T07:12:10.417Z,1005.67
2018-08-22T07:13:10.401Z,1005.66
2018-08-22T07:14:10.504Z,1005.61
2018-08-22T07:15:10.388Z,1005.69
2018-08-22T07:16:10.393Z,1005.64
2018-08-22T07:17:10.359Z,1005.66
2018-08-22T07:18:10.346Z,1005.67
2018-08-22T07:19:10.338Z,1005.64
2018-08-22T07:20:10.327Z,1005.65
2018-08-22T07:21:10.335Z,1005.66
2018-08-22T07:22:10.303Z,1005.66
2018-08-22T07:23:10.289Z,1005.65
2018-08-22T07:24:10.281Z,1005.66
2018-08-22T07:25:10.265Z,1005.69
2018-08-22T07:26:10.283Z,1005.69
2018-08-22T07:27:10.242Z,1005.70
2018-08-22T07:28:10.230Z,1005.68
2018-08-22T07:29:10.223Z,1005.70
2018-08-22T07:30:10.259Z,1005.69
2018-08-22T07:31:10.233Z,1005.67
2018-08-22T07:32:10.189Z,1005.72
2018-08-22T07:33:10.175Z,1005.73
2018-08-22T07:34:10.161Z,1005.74
2018-08-22T07:35:10.201Z,1005.74
2018-08-22T07:36:10.148Z,1005.76
2018-08-22T07:37:10.158Z,1005.73
2018-08-22T07:38:10.126Z,1005.80
2018-08-22T07:39:10.106Z,1005.74
2018-08-22T07:40:10.097Z,1005.76
2018-08-22T07:41:10.090Z,1005.80
2018-08-22T07:42:10.107Z,1005.79
2018-08-22T07:43:10.067Z,1005.79
2018-08-22T07:44:10.055Z,1005.78
2018-08-22T07:45:10.042Z,1005.79
2018-08-22T07:46:10.034Z,1005.81
2018-08-22T07:47:10.090Z,1005.79
2018-08-22T07:48:10.040Z,1005.76
2018-08-22T07:49:10.002Z,1005.76
2018-08-22T07:50:10.038Z,1005.79
2018-08-22T07:51:09.977Z,1005.74
2018-08-22T07:52:09.967Z,1005.76
2018-08-22T07:53:09.990Z,1005.83
2018-08-22T07:54:09.976Z,1005.82
2018-08-22T07:55:09.930Z,1005.74
2018-08-22T07:56:09.932Z,1005.80
2018-08-22T07:57:09.913Z,1005.82
2018-08-22T07:58:09.900Z,1005.82
2018-08-22T07:59:09.886Z,1005.83
2018-08-22T08:00:10.189Z,1005.79
2018-08-22T08:01:09.866Z,1005.79
2018-08-22T08:02:10.869Z,1005.80
2018-08-22T08:03:09.907Z,1005.78
2018-08-22T08:04:09.828Z,1005.77
2018-08-22T08:05:09.850Z,1005.77
2018-08-22T08:06:09.859Z,1005.84
2018-08-22T08:07:09.803Z,1005.83
2018-08-22T08:08:09.790Z,1005.80
2018-08-22T08:09:09.776Z,1005.82
2018-08-22T08:10:09.951Z,1005.85
2018-08-22T08:11:09.752Z,1005.77
2018-08-22T08:12:09.749Z,1005.80
2018-08-22T08:13:09.731Z,1005.80
2018-08-22T08:14:09.791Z,1005.81
2018-08-22T08:15:09.743Z,1005.79
2018-08-22T08:16:09.711Z,1005.80
2018-08-22T08:17:09.728Z,1005.77
2018-08-22T08:18:09.729Z,1005.75
2018-08-22T08:19:09.673Z,1005.75
2018-08-22T08:20:09.676Z,1005.81
2018-08-22T08:21:09.672Z,1005.80
2018-08-22T08:22:09.639Z,1005.85
2018-08-22T08:23:09.625Z,1005.81
2018-08-22T08:24:09.734Z,1005.82
2018-08-22T08:25:09.600Z,1005.84
2018-08-22T08:26:09.646Z,1005.82
2018-08-22T08:27:09.579Z,1005.86
2018-08-22T08:28:09.570Z,1005.83
2018-08-22T08:29:09.557Z,1005.84
2018-08-22T08:30:09.550Z,1005.85
2018-08-22T08:31:09.566Z,1005.80
2018-08-22T08:32:09.549Z,1005.77
2018-08-22T08:33:09.523Z,1005.78
2018-08-22T08:34:09.519Z,1005.79
2018-08-22T08:35:09.530Z,1005.80
2018-08-22T08:36:09.612Z,1005.77
2018-08-22T08:37:09.481Z,1005.72
2018-08-22T08:38:09.464Z,1005.77
2018-08-22T08:39:09.458Z,1005.78
2018-08-22T08:40:09.468Z,1005.71
2018-08-22T08:41:09.441Z,1005.72
2018-08-22T08:42:09.495Z,1005.79
2018-08-22T08:43:09.454Z,1005.79
2018-08-22T08:44:09.451Z,1005.80
2018-08-22T08:45:09.402Z,1005.83
2018-08-22T08:46:09.383Z,1005.82
2018-08-22T08:47:09.432Z,1005.81
2018-08-22T08:48:09.456Z,1005.76
2018-08-22T08:49:09.354Z,1005.66
2018-08-22T08:50:09.346Z,1005.64
2018-08-22T08:51:09.368Z,1005.73
2018-08-22T08:52:09.392Z,1005.71
2018-08-22T08:53:09.540Z,1005.66
2018-08-22T08:54:09.304Z,1005.69
2018-08-22T08:55:09.352Z,1005.68
2018-08-22T08:56:09.382Z,1005.66
2018-08-22T08:57:09.310Z,1005.70
2018-08-22T08:58:09.273Z,1005.66
2018-08-22T08:59:09.291Z,1005.67
2018-08-22T09:00:09.318Z,1005.65
2018-08-22T09:01:09.232Z,1005.64
2018-08-22T09:02:09.229Z,1005.61
2018-08-22T09:03:09.213Z,1005.54
2018-08-22T09:04:09.369Z,1005.59
2018-08-22T09:05:09.195Z,1005.55
2018-08-22T09:06:09.179Z,1005.50
2018-08-22T09:07:09.171Z,1005.48
2018-08-22T09:08:09.167Z,1005.51
2018-08-22T09:09:09.152Z,1005.52
2018-08-22T09:10:09.166Z,1005.45
2018-08-22T09:11:09.141Z,1005.51
2018-08-22T09:12:09.141Z,1005.44
2018-08-22T09:13:09.117Z,1005.47
2018-08-22T09:14:09.106Z,1005.47
2018-08-22T09:15:09.127Z,1005.45
2018-08-22T09:16:09.078Z,1005.56
2018-08-22T09:17:09.110Z,1005.60
2018-08-22T09:18:09.065Z,1005.57
2018-08-22T09:19:09.056Z,1005.58
2018-08-22T09:20:09.041Z,1005.58
2018-08-22T09:21:09.139Z,1005.57
2018-08-22T09:22:09.120Z,1005.63
2018-08-22T09:23:09.010Z,1005.56
2018-08-22T09:24:09.112Z,1005.58
2018-08-22T09:25:09.096Z,1005.57
2018-08-22T09:26:08.981Z,1005.58
2018-08-22T09:27:09.011Z,1005.54
2018-08-22T09:28:09.027Z,1005.42
2018-08-22T09:29:08.986Z,1005.36
2018-08-22T09:30:08.942Z,1005.50
2018-08-22T09:31:08.935Z,1005.43
2018-08-22T09:32:08.922Z,1005.44
2018-08-22T09:33:08.941Z,1005.49
2018-08-22T09:34:08.964Z,1005.46
2018-08-22T09:35:08.939Z,1005.48
2018-08-22T09:36:08.879Z,1005.39
2018-08-22T09:37:08.879Z,1005.35
2018-08-22T09:38:08.890Z,1005.40
2018-08-22T09:39:08.970Z,1005.43
2018-08-22T09:40:08.900Z,1005.41
2018-08-22T09:41:08.830Z,1005.37
2018-08-22T09:42:08.849Z,1005.32
2018-08-22T09:43:08.894Z,1005.35
2018-08-22T09:44:08.839Z,1005.35
2018-08-22T09:45:08.791Z,1005.38
2018-08-22T09:46:08.791Z,1005.35
2018-08-22T09:47:08.780Z,1005.31
2018-08-22T09:48:08.770Z,1005.35
2018-08-22T09:49:08.765Z,1005.30
2018-08-22T09:50:08.866Z,1005.36
2018-08-22T09:51:08.838Z,1005.33
2018-08-22T09:52:08.807Z,1005.24
2018-08-22T09:53:08.708Z,1005.26
2018-08-22T09:54:08.708Z,1005.29
2018-08-22T09:55:08.771Z,1005.35
2018-08-22T09:56:08.708Z,1005.35
2018-08-22T09:57:08.683Z,1005.32
2018-08-22T09:58:08.754Z,1005.34
2018-08-22T09:59:08.706Z,1005.32
2018-08-22T10:00:08.775Z,1005.31
2018-08-22T10:01:08.698Z,1005.27
2018-08-22T10:02:08.630Z,1005.23
2018-08-22T10:03:08.686Z,1005.23
2018-08-22T10:04:08.624Z,1005.13
2018-08-22T10:05:08.602Z,1005.18
2018-08-22T10:06:08.618Z,1005.17
2018-08-22T10:07:08.795Z,1005.18
2018-08-22T10:08:08.653Z,1005.16
2018-08-22T10:09:08.573Z,1005.12
2018-08-22T10:10:08.560Z,1005.09
2018-08-22T10:11:08.548Z,1005.05
2018-08-22T10:12:08.579Z,1004.94
2018-08-22T10:13:08.527Z,1004.95
2018-08-22T10:14:08.696Z,1004.97
2018-08-22T10:15:08.509Z,1004.92
2018-08-22T10:16:08.499Z,1004.84
2018-08-22T10:17:08.503Z,1004.71
2018-08-22T10:18:08.511Z,1004.75
2018-08-22T10:19:08.513Z,1004.69
2018-08-22T10:20:08.552Z,1004.72
2018-08-22T10:21:08.460Z,1004.70
2018-08-22T10:22:08.449Z,1004.63
2018-08-22T10:23:08.459Z,1004.59
2018-08-22T10:24:08.456Z,1004.63
2018-08-22T10:25:08.412Z,1004.62
2018-08-22T10:26:08.410Z,1004.62
2018-08-22T10:27:08.471Z,1004.64
2018-08-22T10:28:08.525Z,1004.66
2018-08-22T10:29:08.373Z,1004.69
2018-08-22T10:30:08.383Z,1004.64
2018-08-22T10:31:08.380Z,1004.66
2018-08-22T10:32:08.346Z,1004.65
2018-08-22T10:33:08.404Z,1004.62
2018-08-22T10:34:08.325Z,1004.61
2018-08-22T10:35:08.424Z,1004.64
2018-08-22T10:36:08.353Z,1004.64
2018-08-22T10:37:08.289Z,1004.59
2018-08-22T10:38:08.281Z,1004.54
2018-08-22T10:39:08.278Z,1004.60
2018-08-22T10:40:08.387Z,1004.60
2018-08-22T10:41:08.252Z,1004.54
2018-08-22T10:42:08.231Z,1004.58
2018-08-22T10:43:08.275Z,1004.56
2018-08-22T10:44:08.286Z,1004.48
2018-08-22T10:45:08.237Z,1004.54
2018-08-22T10:46:08.190Z,1004.51
2018-08-22T10:47:08.182Z,1004.50
2018-08-22T10:48:08.197Z,1004.55
2018-08-22T10:49:08.157Z,1004.53
2018-08-22T10:50:08.153Z,1004.49
2018-08-22T10:51:08.163Z,1004.52
2018-08-22T10:52:08.122Z,1004.54
2018-08-22T10:53:08.117Z,1004.57
2018-08-22T10:54:08.107Z,1004.52
2018-08-22T10:55:08.093Z,1004.51
2018-08-22T10:56:08.121Z,1004.49
2018-08-22T10:57:08.068Z,1004.46
2018-08-22T10:58:08.061Z,1004.46
2018-08-22T10:59:08.051Z,1004.49
2018-08-22T11:00:08.041Z,1004.45
2018-08-22T11:01:08.032Z,1004.40
2018-08-22T11:02:08.046Z,1004.42
2018-08-22T11:03:08.012Z,1004.37
2018-08-22T11:04:08.001Z,1004.39
2018-08-22T11:05:07.981Z,1004.33
2018-08-22T11:06:07.982Z,1004.27
2018-08-22T11:07:07.957Z,1004.30
2018-08-22T11:08:07.979Z,1004.31
2018-08-22T11:09:07.937Z,1004.27
2018-08-22T11:10:07.934Z,1004.28
2018-08-22T11:11:07.916Z,1004.28
2018-08-22T11:12:07.903Z,1004.30
2018-08-22T11:13:07.933Z,1004.24
2018-08-22T11:14:07.884Z,1004.28
2018-08-22T11:15:07.878Z,1004.24
2018-08-22T11:16:07.940Z,1004.21
2018-08-22T11:17:07.848Z,1004.23
2018-08-22T11:18:07.840Z,1004.21
2018-08-22T11:19:07.865Z,1004.19
2018-08-22T11:20:07.815Z,1004.16
2018-08-22T11:21:07.813Z,1004.20
2018-08-22T11:22:07.799Z,1004.12
2018-08-22T11:23:07.784Z,1004.13
2018-08-22T11:24:07.771Z,1004.13
2018-08-22T11:25:07.793Z,1004.07
2018-08-22T11:26:07.749Z,1004.14
2018-08-22T11:27:07.746Z,1004.12
2018-08-22T11:28:07.738Z,1004.12
2018-08-22T11:29:07.715Z,1004.16
2018-08-22T11:30:07.744Z,1004.09
2018-08-22T11:31:07.693Z,1004.10
2018-08-22T11:32:07.689Z,1004.08
2018-08-22T11:33:07.674Z,1004.09
2018-08-22T11:34:07.664Z,1004.18
2018-08-22T11:35:07.652Z,1004.17
2018-08-22T11:36:07.665Z,1004.13
2018-08-22T11:37:07.643Z,1004.12
2018-08-22T11:38:07.618Z,1004.15
2018-08-22T11:39:07.610Z,1004.11
2018-08-22T11:40:07.601Z,1004.09
2018-08-22T11:41:07.622Z,1004.08
2018-08-22T11:42:07.579Z,1004.11
2018-08-22T11:43:07.559Z,1004.14
2018-08-22T11:44:07.548Z,1004.14
2018-08-22T11:45:07.547Z,1004.17
2018-08-22T11:46:07.525Z,1004.16
2018-08-22T11:47:07.556Z,1004.18
2018-08-22T11:48:07.506Z,1004.17
2018-08-22T11:49:07.498Z,1004.20
2018-08-22T11:50:07.490Z,1004.22
2018-08-22T11:51:07.469Z,1004.17
2018-08-22T11:52:07.465Z,1004.22
2018-08-22T11:53:07.474Z,1004.17
2018-08-22T11:54:07.435Z,1004.17
2018-08-22T11:55:07.435Z,1004.11
2018-08-22T11:56:07.457Z,1004.16
2018-08-22T11:57:07.414Z,1004.25
2018-08-22T11:58:07.430Z,1004.19
2018-08-22T11:59:07.383Z,1004.15
2018-08-22T12:00:07.378Z,1004.14
2018-08-22T12:01:07.359Z,1004.13
2018-08-22T12:02:07.350Z,1004.12
2018-08-22T12:03:07.342Z,1004.08
2018-08-22T12:04:07.363Z,1004.17
2018-08-22T12:05:07.316Z,1004.14